Hlavní strana
METAR-TAF:

METAR-TAF

Letiště :

Laupheim, Německo

zeměpisná šířka: 48-13N, zeměpisná délka: 009-55E, výška: 538 m

Aktuální stav počasí

Zpráva byla vytvořena před 28 minutami, v 23:20 UTC
Západní vítr 12 kt
Teplota 4°C
Vlhkost vzduchu 93%
Tlak 1015 hPa
Viditelnost 10 km a více
Skoro jasno ve výšce 800 ft
Oblačno až skoro zataženo ve výšce 1600 ft
slabé dešťové přeháňky

METAR: ETHL 092320Z 28012KT 9999 -SHRA FEW008 BKN016 04/03 Q1015 RESHRA WHT

Čas: 00:48 (23:48 UTC)


TAF: chybějící

Stav a předpovědi počasí z více než 4 000 letišť (zprávy METAR a TAF).

Červené a žluté tečky na mapě představují dostupné meteorologické stanice.

Když kurzor umístíte na tečku, zobrazí se název stanice.

Pak kliknutím zobrazíte stav a předpověď počasí.

Chcete-li změnit mapu, kliknutím na zelené tlačítko se znaménkem +mapu přiblížíte, kliknutím na zelené tlačítko se znaménkem – mapu oddálíte a kliknutím na zelené šipky přejdete na sousední mapy.


METAR-TAF: